createdAt,value
2022-09-11T00:02:46.864Z,17.99
2022-09-11T00:06:50.232Z,17.98
2022-09-11T00:10:53.188Z,17.98
2022-09-11T00:14:56.371Z,17.98
2022-09-11T00:19:02.987Z,17.97
2022-09-11T00:23:07.070Z,17.96
2022-09-11T00:27:10.501Z,17.96
2022-09-11T00:31:15.659Z,17.94
2022-09-11T00:35:20.116Z,17.92
2022-09-11T00:39:23.279Z,17.88
2022-09-11T00:43:27.747Z,17.83
2022-09-11T00:47:32.234Z,17.82
2022-09-11T00:51:37.884Z,17.81
2022-09-11T00:55:44.542Z,17.80
2022-09-11T00:59:49.389Z,17.78
2022-09-11T01:03:52.603Z,17.77
2022-09-11T01:07:57.681Z,17.79
2022-09-11T01:12:06.783Z,17.79
2022-09-11T01:16:16.294Z,17.79
2022-09-11T01:20:37.208Z,17.78
2022-09-11T01:24:56.654Z,17.72
2022-09-11T01:29:07.525Z,17.72
2022-09-11T01:33:22.999Z,17.70
2022-09-11T01:37:32.152Z,17.69
2022-09-11T01:41:41.548Z,17.69
2022-09-11T01:45:48.449Z,17.69
2022-09-11T01:49:57.764Z,17.70
2022-09-11T01:54:08.668Z,17.73
2022-09-11T01:58:15.927Z,17.76
2022-09-11T02:02:27.561Z,17.74
2022-09-11T02:06:34.902Z,17.71
2022-09-11T02:10:44.379Z,17.69
2022-09-11T02:14:49.915Z,17.68
2022-09-11T02:19:00.864Z,17.66
2022-09-11T02:23:04.027Z,17.67
2022-09-11T02:27:13.144Z,17.67
2022-09-11T02:31:19.980Z,17.69
2022-09-11T02:35:34.435Z,17.72
2022-09-11T02:40:01.722Z,17.72
2022-09-11T02:44:14.790Z,17.70
2022-09-11T02:48:37.500Z,17.70
2022-09-11T02:52:50.495Z,17.66
2022-09-11T02:57:03.386Z,17.65
2022-09-11T03:01:10.180Z,17.62
2022-09-11T03:05:15.738Z,17.63
2022-09-11T03:09:21.257Z,17.63
2022-09-11T03:13:28.227Z,17.64
2022-09-11T03:17:31.274Z,17.65
2022-09-11T03:21:35.920Z,17.63
2022-09-11T03:25:41.154Z,17.62
2022-09-11T03:29:45.116Z,17.61
2022-09-11T03:33:48.155Z,17.60
2022-09-11T03:37:51.934Z,17.57
2022-09-11T03:41:56.759Z,17.56
2022-09-11T03:46:00.619Z,17.52
2022-09-11T03:50:03.794Z,17.49
2022-09-11T03:54:08.890Z,17.47
2022-09-11T03:58:14.181Z,17.46
2022-09-11T04:02:19.666Z,17.47
2022-09-11T04:06:22.907Z,17.46
2022-09-11T04:10:25.998Z,17.47
2022-09-11T04:14:30.808Z,17.46
2022-09-11T04:18:37.820Z,17.46
2022-09-11T04:22:42.119Z,17.47
2022-09-11T04:26:45.546Z,17.48
2022-09-11T04:30:57.195Z,17.46
2022-09-11T04:35:01.792Z,17.47
2022-09-11T04:39:12.255Z,17.46
2022-09-11T04:43:17.417Z,17.46
2022-09-11T04:47:22.591Z,17.46
2022-09-11T04:51:29.207Z,17.45
2022-09-11T04:55:33.653Z,17.47
2022-09-11T04:59:36.898Z,17.48
2022-09-11T05:03:45.558Z,17.50
2022-09-11T05:07:50.364Z,17.54
2022-09-11T05:11:54.548Z,17.58
2022-09-11T05:16:02.661Z,17.59
2022-09-11T05:20:11.925Z,17.62
2022-09-11T05:24:15.464Z,17.63
2022-09-11T05:28:18.835Z,17.66
2022-09-11T05:32:21.887Z,17.69
2022-09-11T05:36:26.434Z,17.72
2022-09-11T05:40:29.597Z,17.77
2022-09-11T05:44:33.973Z,17.80
2022-09-11T05:48:38.603Z,17.82
2022-09-11T05:52:43.274Z,17.83
2022-09-11T05:56:46.367Z,17.87
2022-09-11T06:01:05.154Z,17.89
2022-09-11T06:05:10.922Z,17.89
2022-09-11T06:09:16.476Z,17.92
2022-09-11T06:13:19.943Z,17.93
2022-09-11T06:17:26.535Z,17.92
2022-09-11T06:21:30.503Z,17.90
2022-09-11T06:25:45.298Z,17.88
2022-09-11T06:29:49.369Z,17.87
2022-09-11T06:33:55.751Z,17.90
2022-09-11T06:37:58.748Z,17.93
2022-09-11T06:42:04.503Z,17.97
2022-09-11T06:46:15.662Z,18.00
2022-09-11T06:50:18.729Z,18.03
2022-09-11T06:54:39.028Z,18.08
2022-09-11T06:58:48.736Z,18.10
2022-09-11T07:02:53.019Z,18.13
2022-09-11T07:06:56.415Z,18.13
2022-09-11T07:11:04.179Z,18.13
2022-09-11T07:15:12.512Z,18.16
2022-09-11T07:19:15.636Z,18.17
2022-09-11T07:23:19.388Z,18.15
2022-09-11T07:27:22.962Z,18.18
2022-09-11T07:31:30.241Z,18.22
2022-09-11T07:35:38.147Z,18.25
2022-09-11T07:39:41.824Z,18.28
2022-09-11T07:43:55.783Z,18.31
2022-09-11T07:48:03.233Z,18.33
2022-09-11T07:52:07.692Z,18.33
2022-09-11T07:56:23.238Z,18.32
2022-09-11T08:00:27.332Z,18.35
2022-09-11T08:04:41.395Z,18.39
2022-09-11T08:08:45.908Z,18.46
2022-09-11T08:12:49.060Z,18.53
2022-09-11T08:16:53.583Z,18.63
2022-09-11T08:21:04.540Z,18.71
2022-09-11T08:25:08.057Z,18.78
2022-09-11T08:29:11.720Z,18.86
2022-09-11T08:33:14.944Z,18.97
2022-09-11T08:37:19.969Z,19.17
2022-09-11T08:41:33.596Z,19.29
2022-09-11T08:45:40.435Z,19.38
2022-09-11T08:49:45.197Z,19.46
2022-09-11T08:53:51.495Z,19.46
2022-09-11T08:58:05.569Z,19.49
2022-09-11T09:02:28.883Z,19.61
2022-09-11T09:06:51.481Z,19.78
2022-09-11T09:11:05.459Z,19.93
2022-09-11T09:15:29.363Z,19.99
2022-09-11T09:19:40.932Z,20.10
2022-09-11T09:23:49.908Z,20.21
2022-09-11T09:28:00.590Z,20.35
2022-09-11T09:32:08.211Z,20.32
2022-09-11T09:36:21.035Z,20.20
2022-09-11T09:40:26.862Z,20.15
2022-09-11T09:44:46.352Z,20.12
2022-09-11T09:48:49.416Z,20.13
2022-09-11T09:52:55.330Z,20.19
2022-09-11T09:57:03.526Z,20.21
2022-09-11T10:01:45.307Z,20.20
2022-09-11T10:05:50.531Z,20.21
2022-09-11T10:10:03.165Z,20.18
2022-09-11T10:14:08.948Z,20.15
2022-09-11T10:18:42.992Z,20.11
2022-09-11T10:22:47.370Z,20.08
2022-09-11T10:26:53.372Z,20.08
2022-09-11T10:31:00.230Z,20.07
2022-09-11T10:35:10.384Z,20.04
2022-09-11T10:39:20.742Z,20.02
2022-09-11T10:43:27.665Z,20.02
2022-09-11T10:47:33.849Z,20.03
2022-09-11T10:51:43.082Z,20.06
2022-09-11T10:55:58.089Z,20.12
2022-09-11T11:00:13.581Z,20.11
2022-09-11T11:04:17.100Z,20.12
2022-09-11T11:08:58.826Z,20.13
2022-09-11T11:13:15.789Z,20.14
2022-09-11T11:17:29.741Z,20.17
2022-09-11T11:21:49.289Z,20.15
2022-09-11T11:26:07.413Z,20.17
2022-09-11T11:30:15.841Z,20.25
2022-09-11T11:34:31.226Z,20.34
2022-09-11T11:38:40.840Z,20.30
2022-09-11T11:42:53.997Z,20.28
2022-09-11T11:47:05.419Z,20.25
2022-09-11T11:51:12.603Z,20.26
2022-09-11T11:55:18.748Z,20.25
2022-09-11T11:59:31.916Z,20.25
2022-09-11T12:03:40.842Z,20.30
2022-09-11T12:07:47.371Z,20.44
2022-09-11T12:11:54.045Z,20.58
2022-09-11T12:16:12.089Z,20.59
2022-09-11T12:20:30.776Z,20.56
2022-09-11T12:24:58.669Z,20.56
2022-09-11T12:29:35.790Z,20.60
2022-09-11T12:34:17.491Z,20.69
2022-09-11T12:38:26.923Z,20.77
2022-09-11T12:42:49.066Z,20.76
2022-09-11T12:47:12.569Z,20.62
2022-09-11T12:51:22.378Z,20.68
2022-09-11T12:55:34.361Z,20.79
2022-09-11T12:59:41.088Z,20.87
2022-09-11T13:03:53.847Z,20.99
2022-09-11T13:08:04.294Z,21.18
2022-09-11T13:12:40.982Z,21.25
2022-09-11T13:16:46.158Z,21.29
2022-09-11T13:20:59.528Z,21.40
2022-09-11T13:25:12.442Z,21.52
2022-09-11T13:29:15.792Z,21.61
2022-09-11T13:33:23.984Z,21.76
2022-09-11T13:37:38.019Z,21.89
2022-09-11T13:41:45.798Z,22.00
2022-09-11T13:45:49.267Z,22.12
2022-09-11T13:49:55.293Z,22.17
2022-09-11T13:54:06.013Z,22.22
2022-09-11T13:58:24.384Z,22.29
2022-09-11T14:02:46.957Z,22.33
2022-09-11T14:06:50.303Z,22.38
2022-09-11T14:10:56.612Z,22.40
2022-09-11T14:15:08.738Z,22.40
2022-09-11T14:19:18.111Z,22.46
2022-09-11T14:23:25.531Z,22.53
2022-09-11T14:27:39.526Z,22.55
2022-09-11T14:31:44.716Z,22.53
2022-09-11T14:35:50.315Z,22.52
2022-09-11T14:39:57.028Z,22.47
2022-09-11T14:44:00.673Z,22.44
2022-09-11T14:48:11.876Z,22.33
2022-09-11T14:52:17.335Z,22.22
2022-09-11T14:56:20.565Z,22.08
2022-09-11T15:00:27.356Z,22.00
2022-09-11T15:04:32.281Z,21.91
2022-09-11T15:08:35.322Z,21.84
2022-09-11T15:12:38.283Z,21.81
2022-09-11T15:16:42.083Z,21.84
2022-09-11T15:20:46.498Z,21.83
2022-09-11T15:24:49.850Z,21.78
2022-09-11T15:28:53.417Z,21.67
2022-09-11T15:32:56.706Z,21.60
2022-09-11T15:37:01.250Z,21.59
2022-09-11T15:41:05.609Z,21.57
2022-09-11T15:45:10.340Z,21.42
2022-09-11T15:49:13.317Z,20.98
2022-09-11T15:53:17.726Z,20.55
2022-09-11T15:57:20.920Z,20.17
2022-09-11T16:01:25.908Z,19.99
2022-09-11T16:05:29.809Z,19.88
2022-09-11T16:09:35.307Z,19.79
2022-09-11T16:13:40.697Z,19.73
2022-09-11T16:17:44.939Z,19.63
2022-09-11T16:21:48.781Z,19.59
2022-09-11T16:25:53.858Z,19.50
2022-09-11T16:30:32.219Z,19.43
2022-09-11T16:34:20.044Z,19.35
2022-09-11T16:38:24.071Z,19.30
2022-09-11T16:42:28.875Z,19.23
2022-09-11T16:46:33.401Z,19.15
2022-09-11T16:50:36.533Z,19.11
2022-09-11T16:54:39.862Z,19.07
2022-09-11T16:58:45.240Z,19.05
2022-09-11T17:02:48.615Z,19.04
2022-09-11T17:06:51.888Z,19.04
2022-09-11T17:10:57.431Z,19.05
2022-09-11T17:15:03.129Z,19.05
2022-09-11T17:19:08.263Z,19.01
2022-09-11T17:23:12.443Z,18.93
2022-09-11T17:27:15.566Z,18.86
2022-09-11T17:31:20.333Z,18.80
2022-09-11T17:35:23.938Z,18.73
2022-09-11T17:39:27.027Z,18.67
2022-09-11T17:43:30.119Z,18.63
2022-09-11T17:47:36.118Z,18.60
2022-09-11T17:51:39.337Z,18.56
2022-09-11T17:55:42.394Z,18.51
2022-09-11T17:59:45.593Z,18.48
2022-09-11T18:03:53.770Z,18.42
2022-09-11T18:08:00.054Z,18.40
2022-09-11T18:12:04.176Z,18.38
2022-09-11T18:16:11.367Z,18.39
2022-09-11T18:20:17.759Z,18.39
2022-09-11T18:24:21.258Z,18.38
2022-09-11T18:28:24.380Z,18.38
2022-09-11T18:32:27.479Z,18.37
2022-09-11T18:36:32.724Z,18.36
2022-09-11T18:40:35.801Z,18.37
2022-09-11T18:44:38.763Z,18.37
2022-09-11T18:48:44.409Z,18.36
2022-09-11T18:52:50.819Z,18.31
2022-09-11T18:56:54.052Z,18.27
2022-09-11T19:00:57.485Z,18.25
2022-09-11T19:05:01.416Z,18.20
2022-09-11T19:09:07.749Z,18.18
2022-09-11T19:13:10.912Z,18.18
2022-09-11T19:17:13.914Z,18.17
2022-09-11T19:21:20.842Z,18.13
2022-09-11T19:25:28.007Z,18.09
2022-09-11T19:29:31.203Z,18.05
2022-09-11T19:33:35.600Z,18.05
2022-09-11T19:37:39.324Z,18.02
2022-09-11T19:41:43.830Z,18.01
2022-09-11T19:45:46.808Z,18.01
2022-09-11T19:49:50.328Z,17.97
2022-09-11T19:53:56.144Z,17.94
2022-09-11T19:58:00.983Z,17.94
2022-09-11T20:02:04.246Z,17.91
2022-09-11T20:06:08.071Z,17.89
2022-09-11T20:10:11.189Z,17.90
2022-09-11T20:14:15.602Z,17.90
2022-09-11T20:18:18.655Z,17.86
2022-09-11T20:22:22.178Z,17.82
2022-09-11T20:26:27.384Z,17.78
2022-09-11T20:30:33.799Z,17.72
2022-09-11T20:34:36.795Z,17.69
2022-09-11T20:38:40.395Z,17.66
2022-09-11T20:42:43.587Z,17.61
2022-09-11T20:46:48.386Z,17.60
2022-09-11T20:50:52.217Z,17.60
2022-09-11T20:54:55.419Z,17.56
2022-09-11T20:59:00.016Z,17.55
2022-09-11T21:03:05.321Z,17.52
2022-09-11T21:07:08.408Z,17.52
2022-09-11T21:11:13.750Z,17.52
2022-09-11T21:15:16.923Z,17.49
2022-09-11T21:19:21.279Z,17.46
2022-09-11T21:23:24.927Z,17.45
2022-09-11T21:27:28.182Z,17.40
2022-09-11T21:31:31.437Z,17.36
2022-09-11T21:35:37.309Z,17.33
2022-09-11T21:39:41.947Z,17.36
2022-09-11T21:43:45.417Z,17.31
2022-09-11T21:47:51.897Z,17.27
2022-09-11T21:51:59.868Z,17.25
2022-09-11T21:56:03.695Z,17.24
2022-09-11T22:00:09.878Z,17.20
2022-09-11T22:04:13.291Z,17.20
2022-09-11T22:08:19.552Z,17.17
2022-09-11T22:12:22.707Z,17.14
2022-09-11T22:16:26.094Z,17.14
2022-09-11T22:20:29.221Z,17.11
2022-09-11T22:24:33.750Z,17.09
2022-09-11T22:28:37.488Z,17.07
2022-09-11T22:32:40.470Z,17.02
2022-09-11T22:36:43.503Z,16.99
2022-09-11T22:40:53.257Z,16.96
2022-09-11T22:44:56.287Z,16.91
2022-09-11T22:48:59.323Z,16.85
2022-09-11T22:53:02.463Z,16.83
2022-09-11T22:57:07.082Z,16.83
2022-09-11T23:01:12.663Z,16.82
2022-09-11T23:05:33.047Z,16.80
2022-09-11T23:09:38.414Z,16.77
2022-09-11T23:13:43.757Z,16.74
2022-09-11T23:17:46.955Z,16.74
2022-09-11T23:21:51.494Z,16.72
2022-09-11T23:25:54.663Z,16.69
2022-09-11T23:29:59.049Z,16.69
2022-09-11T23:34:03.712Z,16.67
2022-09-11T23:38:07.186Z,16.63
2022-09-11T23:42:10.164Z,16.63
2022-09-11T23:46:14.867Z,16.63
2022-09-11T23:50:18.460Z,16.62
2022-09-11T23:54:22.027Z,16.60
2022-09-11T23:58:25.571Z,16.56
